sensor_id;sensor_type;location;lat;lon;timestamp;P1;durP1;ratioP1;P2;durP2;ratioP2
34902;SDS011;21114;44.840;0.214;2023-04-08T00:01:24;1.75;;;1.42;;
34902;SDS011;21114;44.840;0.214;2023-04-08T00:03:50;15.60;;;2.63;;
34902;SDS011;21114;44.840;0.214;2023-04-08T00:06:16;3.35;;;0.90;;
34902;SDS011;21114;44.840;0.214;2023-04-08T00:08:42;4.35;;;0.77;;
34902;SDS011;21114;44.840;0.214;2023-04-08T00:11:08;2.38;;;0.82;;
34902;SDS011;21114;44.840;0.214;2023-04-08T00:13:34;1.55;;;0.68;;
34902;SDS011;21114;44.840;0.214;2023-04-08T00:16:01;1.42;;;0.50;;
34902;SDS011;21114;44.840;0.214;2023-04-08T00:19:06;3.92;;;0.68;;
34902;SDS011;21114;44.840;0.214;2023-04-08T00:21:32;1.27;;;0.70;;
34902;SDS011;21114;44.840;0.214;2023-04-08T00:23:59;3.10;;;1.27;;
34902;SDS011;21114;44.840;0.214;2023-04-08T00:26:25;1.70;;;1.17;;
34902;SDS011;21114;44.840;0.214;2023-04-08T00:28:51;1.65;;;0.50;;
34902;SDS011;21114;44.840;0.214;2023-04-08T00:31:17;3.75;;;1.88;;
34902;SDS011;21114;44.840;0.214;2023-04-08T00:33:43;0.68;;;0.40;;
34902;SDS011;21114;44.840;0.214;2023-04-08T00:36:09;2.58;;;0.60;;
34902;SDS011;21114;44.840;0.214;2023-04-08T00:38:35;1.33;;;0.68;;
34902;SDS011;21114;44.840;0.214;2023-04-08T00:41:01;1.13;;;0.65;;
34902;SDS011;21114;44.840;0.214;2023-04-08T00:43:27;1.38;;;0.70;;
34902;SDS011;21114;44.840;0.214;2023-04-08T00:45:54;2.30;;;1.02;;
34902;SDS011;21114;44.840;0.214;2023-04-08T00:48:20;1.73;;;0.88;;
34902;SDS011;21114;44.840;0.214;2023-04-08T00:50:46;1.90;;;0.95;;
34902;SDS011;21114;44.840;0.214;2023-04-08T00:53:14;1.55;;;1.00;;
34902;SDS011;21114;44.840;0.214;2023-04-08T00:56:03;1.48;;;0.73;;
34902;SDS011;21114;44.840;0.214;2023-04-08T00:58:30;1.10;;;0.40;;
34902;SDS011;21114;44.840;0.214;2023-04-08T01:00:58;0.85;;;0.70;;
34902;SDS011;21114;44.840;0.214;2023-04-08T01:06:50;1.35;;;0.60;;
34902;SDS011;21114;44.840;0.214;2023-04-08T01:10:11;1.67;;;0.90;;
34902;SDS011;21114;44.840;0.214;2023-04-08T01:12:39;2.85;;;0.85;;
34902;SDS011;21114;44.840;0.214;2023-04-08T01:15:48;1.95;;;0.82;;
34902;SDS011;21114;44.840;0.214;2023-04-08T01:19:03;0.85;;;0.38;;
34902;SDS011;21114;44.840;0.214;2023-04-08T01:21:57;3.33;;;0.70;;
34902;SDS011;21114;44.840;0.214;2023-04-08T01:25:11;0.60;;;0.30;;
34902;SDS011;21114;44.840;0.214;2023-04-08T01:28:27;0.75;;;0.50;;
34902;SDS011;21114;44.840;0.214;2023-04-08T01:31:42;2.53;;;0.80;;
34902;SDS011;21114;44.840;0.214;2023-04-08T01:34:08;1.88;;;0.50;;
34902;SDS011;21114;44.840;0.214;2023-04-08T01:36:36;1.38;;;0.68;;
34902;SDS011;21114;44.840;0.214;2023-04-08T01:39:51;1.10;;;0.43;;
34902;SDS011;21114;44.840;0.214;2023-04-08T01:43:03;1.70;;;0.57;;
34902;SDS011;21114;44.840;0.214;2023-04-08T01:46:19;3.95;;;0.75;;
34902;SDS011;21114;44.840;0.214;2023-04-08T01:48:45;1.30;;;0.55;;
34902;SDS011;21114;44.840;0.214;2023-04-08T01:52:00;0.82;;;0.30;;
34902;SDS011;21114;44.840;0.214;2023-04-08T01:54:26;0.98;;;0.45;;
34902;SDS011;21114;44.840;0.214;2023-04-08T01:56:52;0.88;;;0.50;;
34902;SDS011;21114;44.840;0.214;2023-04-08T02:00:08;1.77;;;0.95;;
34902;SDS011;21114;44.840;0.214;2023-04-08T02:03:23;1.65;;;0.80;;
34902;SDS011;21114;44.840;0.214;2023-04-08T02:06:38;1.10;;;0.45;;
34902;SDS011;21114;44.840;0.214;2023-04-08T02:09:05;1.38;;;0.75;;
34902;SDS011;21114;44.840;0.214;2023-04-08T02:11:32;1.70;;;1.45;;
34902;SDS011;21114;44.840;0.214;2023-04-08T02:13:58;0.93;;;0.40;;
34902;SDS011;21114;44.840;0.214;2023-04-08T02:16:28;0.75;;;0.40;;
34902;SDS011;21114;44.840;0.214;2023-04-08T02:19:47;1.40;;;0.52;;
34902;SDS011;21114;44.840;0.214;2023-04-08T02:23:06;0.65;;;0.40;;
34902;SDS011;21114;44.840;0.214;2023-04-08T02:26:22;2.15;;;0.60;;
34902;SDS011;21114;44.840;0.214;2023-04-08T02:29:37;1.63;;;0.60;;
34902;SDS011;21114;44.840;0.214;2023-04-08T02:32:53;1.67;;;1.10;;
34902;SDS011;21114;44.840;0.214;2023-04-08T02:36:09;1.33;;;0.63;;
34902;SDS011;21114;44.840;0.214;2023-04-08T02:39:31;4.50;;;1.75;;
34902;SDS011;21114;44.840;0.214;2023-04-08T02:42:46;2.78;;;0.60;;
34902;SDS011;21114;44.840;0.214;2023-04-08T02:45:12;0.88;;;0.50;;
34902;SDS011;21114;44.840;0.214;2023-04-08T02:47:38;1.85;;;0.70;;
34902;SDS011;21114;44.840;0.214;2023-04-08T02:50:04;1.70;;;0.85;;
34902;SDS011;21114;44.840;0.214;2023-04-08T02:52:30;1.00;;;0.60;;
34902;SDS011;21114;44.840;0.214;2023-04-08T02:54:56;1.35;;;0.90;;
34902;SDS011;21114;44.840;0.214;2023-04-08T02:57:22;1.17;;;0.75;;
34902;SDS011;21114;44.840;0.214;2023-04-08T02:59:48;2.00;;;0.60;;
34902;SDS011;21114;44.840;0.214;2023-04-08T03:02:14;1.20;;;0.60;;
34902;SDS011;21114;44.840;0.214;2023-04-08T03:04:41;2.38;;;0.80;;
34902;SDS011;21114;44.840;0.214;2023-04-08T03:07:07;1.15;;;0.40;;
34902;SDS011;21114;44.840;0.214;2023-04-08T03:09:33;2.47;;;0.85;;
34902;SDS011;21114;44.840;0.214;2023-04-08T03:11:59;0.77;;;0.60;;
34902;SDS011;21114;44.840;0.214;2023-04-08T03:14:25;1.25;;;0.65;;
34902;SDS011;21114;44.840;0.214;2023-04-08T03:16:52;1.02;;;0.50;;
34902;SDS011;21114;44.840;0.214;2023-04-08T03:19:18;4.47;;;1.33;;
34902;SDS011;21114;44.840;0.214;2023-04-08T03:21:44;2.90;;;1.10;;
34902;SDS011;21114;44.840;0.214;2023-04-08T03:24:10;1.35;;;0.63;;
34902;SDS011;21114;44.840;0.214;2023-04-08T03:26:36;1.25;;;0.70;;
34902;SDS011;21114;44.840;0.214;2023-04-08T03:29:02;0.73;;;0.70;;
34902;SDS011;21114;44.840;0.214;2023-04-08T03:31:28;2.25;;;0.63;;
34902;SDS011;21114;44.840;0.214;2023-04-08T03:33:54;1.80;;;1.25;;
34902;SDS011;21114;44.840;0.214;2023-04-08T03:36:20;1.48;;;0.65;;
34902;SDS011;21114;44.840;0.214;2023-04-08T03:38:46;2.10;;;0.50;;
34902;SDS011;21114;44.840;0.214;2023-04-08T03:41:12;0.93;;;0.50;;
34902;SDS011;21114;44.840;0.214;2023-04-08T03:43:38;0.85;;;0.68;;
34902;SDS011;21114;44.840;0.214;2023-04-08T03:46:04;0.88;;;0.57;;
34902;SDS011;21114;44.840;0.214;2023-04-08T03:48:31;1.65;;;0.60;;
34902;SDS011;21114;44.840;0.214;2023-04-08T03:50:57;1.77;;;0.75;;
34902;SDS011;21114;44.840;0.214;2023-04-08T03:53:23;3.00;;;1.20;;
34902;SDS011;21114;44.840;0.214;2023-04-08T03:55:53;1.67;;;0.60;;
34902;SDS011;21114;44.840;0.214;2023-04-08T03:58:19;3.50;;;1.20;;
34902;SDS011;21114;44.840;0.214;2023-04-08T04:00:45;1.88;;;0.80;;
34902;SDS011;21114;44.840;0.214;2023-04-08T04:03:12;1.38;;;1.00;;
34902;SDS011;21114;44.840;0.214;2023-04-08T04:05:41;2.13;;;0.60;;
34902;SDS011;21114;44.840;0.214;2023-04-08T04:08:07;3.00;;;1.33;;
34902;SDS011;21114;44.840;0.214;2023-04-08T04:11:22;1.73;;;1.33;;
34902;SDS011;21114;44.840;0.214;2023-04-08T04:13:48;1.83;;;0.93;;
34902;SDS011;21114;44.840;0.214;2023-04-08T04:16:14;1.80;;;1.20;;
34902;SDS011;21114;44.840;0.214;2023-04-08T04:18:40;2.30;;;0.98;;
34902;SDS011;21114;44.840;0.214;2023-04-08T04:21:06;1.73;;;0.95;;
34902;SDS011;21114;44.840;0.214;2023-04-08T04:23:32;2.55;;;1.00;;
34902;SDS011;21114;44.840;0.214;2023-04-08T04:25:59;2.00;;;0.93;;
34902;SDS011;21114;44.840;0.214;2023-04-08T04:28:25;2.67;;;1.30;;
34902;SDS011;21114;44.840;0.214;2023-04-08T04:30:51;1.75;;;0.85;;
34902;SDS011;21114;44.840;0.214;2023-04-08T04:33:17;1.67;;;1.15;;
34902;SDS011;21114;44.840;0.214;2023-04-08T04:35:43;1.50;;;0.75;;
34902;SDS011;21114;44.840;0.214;2023-04-08T04:38:10;2.13;;;1.13;;
34902;SDS011;21114;44.840;0.214;2023-04-08T04:40:37;2.47;;;0.90;;
34902;SDS011;21114;44.840;0.214;2023-04-08T04:43:52;3.70;;;1.10;;
34902;SDS011;21114;44.840;0.214;2023-04-08T04:46:18;2.05;;;0.73;;
34902;SDS011;21114;44.840;0.214;2023-04-08T04:48:44;4.70;;;1.48;;
34902;SDS011;21114;44.840;0.214;2023-04-08T04:51:59;2.13;;;1.63;;
34902;SDS011;21114;44.840;0.214;2023-04-08T04:54:25;0.90;;;0.80;;
34902;SDS011;21114;44.840;0.214;2023-04-08T04:57:40;1.27;;;0.77;;
34902;SDS011;21114;44.840;0.214;2023-04-08T05:00:06;1.95;;;1.05;;
34902;SDS011;21114;44.840;0.214;2023-04-08T05:03:02;0.98;;;0.60;;
34902;SDS011;21114;44.840;0.214;2023-04-08T05:05:28;2.38;;;1.00;;
34902;SDS011;21114;44.840;0.214;2023-04-08T05:07:54;4.30;;;1.80;;
34902;SDS011;21114;44.840;0.214;2023-04-08T05:10:20;3.40;;;1.50;;
34902;SDS011;21114;44.840;0.214;2023-04-08T05:13:35;2.60;;;1.80;;
34902;SDS011;21114;44.840;0.214;2023-04-08T05:16:01;5.82;;;2.30;;
34902;SDS011;21114;44.840;0.214;2023-04-08T05:18:27;7.40;;;4.22;;
34902;SDS011;21114;44.840;0.214;2023-04-08T05:20:53;5.97;;;3.92;;
34902;SDS011;21114;44.840;0.214;2023-04-08T05:23:22;2.80;;;1.85;;
34902;SDS011;21114;44.840;0.214;2023-04-08T05:26:10;4.35;;;2.38;;
34902;SDS011;21114;44.840;0.214;2023-04-08T05:28:36;4.15;;;1.65;;
34902;SDS011;21114;44.840;0.214;2023-04-08T05:31:02;3.60;;;2.67;;
34902;SDS011;21114;44.840;0.214;2023-04-08T05:33:28;2.15;;;0.93;;
34902;SDS011;21114;44.840;0.214;2023-04-08T05:36:46;2.10;;;1.10;;
34902;SDS011;21114;44.840;0.214;2023-04-08T05:40:01;2.22;;;1.00;;
34902;SDS011;21114;44.840;0.214;2023-04-08T05:42:27;4.38;;;1.67;;
34902;SDS011;21114;44.840;0.214;2023-04-08T05:44:53;4.43;;;2.08;;
34902;SDS011;21114;44.840;0.214;2023-04-08T05:47:19;4.07;;;1.95;;
34902;SDS011;21114;44.840;0.214;2023-04-08T05:49:46;3.20;;;1.40;;
34902;SDS011;21114;44.840;0.214;2023-04-08T05:52:12;2.30;;;1.08;;
34902;SDS011;21114;44.840;0.214;2023-04-08T05:54:38;2.22;;;1.40;;
34902;SDS011;21114;44.840;0.214;2023-04-08T05:57:55;3.75;;;1.38;;
34902;SDS011;21114;44.840;0.214;2023-04-08T06:00:21;2.42;;;1.38;;
34902;SDS011;21114;44.840;0.214;2023-04-08T06:02:47;1.60;;;1.20;;
34902;SDS011;21114;44.840;0.214;2023-04-08T06:05:13;2.95;;;1.67;;
34902;SDS011;21114;44.840;0.214;2023-04-08T06:07:39;2.17;;;1.27;;
34902;SDS011;21114;44.840;0.214;2023-04-08T06:10:06;3.15;;;1.60;;
34902;SDS011;21114;44.840;0.214;2023-04-08T06:13:21;4.97;;;2.40;;
34902;SDS011;21114;44.840;0.214;2023-04-08T06:15:49;5.57;;;2.13;;
34902;SDS011;21114;44.840;0.214;2023-04-08T06:18:15;3.35;;;1.85;;
34902;SDS011;21114;44.840;0.214;2023-04-08T06:20:42;4.15;;;2.30;;
34902;SDS011;21114;44.840;0.214;2023-04-08T06:23:08;2.53;;;1.58;;
34902;SDS011;21114;44.840;0.214;2023-04-08T06:25:34;1.70;;;1.23;;
34902;SDS011;21114;44.840;0.214;2023-04-08T06:28:00;2.83;;;1.58;;
34902;SDS011;21114;44.840;0.214;2023-04-08T06:30:26;2.55;;;1.25;;
34902;SDS011;21114;44.840;0.214;2023-04-08T06:32:52;1.92;;;0.98;;
34902;SDS011;21114;44.840;0.214;2023-04-08T06:35:18;2.40;;;1.60;;
34902;SDS011;21114;44.840;0.214;2023-04-08T06:37:44;4.20;;;1.60;;
34902;SDS011;21114;44.840;0.214;2023-04-08T06:40:10;2.40;;;1.40;;
34902;SDS011;21114;44.840;0.214;2023-04-08T06:42:36;3.95;;;2.72;;
34902;SDS011;21114;44.840;0.214;2023-04-08T06:45:05;12.00;;;2.35;;
34902;SDS011;21114;44.840;0.214;2023-04-08T06:47:31;4.55;;;2.53;;
34902;SDS011;21114;44.840;0.214;2023-04-08T06:49:57;5.05;;;2.13;;
34902;SDS011;21114;44.840;0.214;2023-04-08T06:52:23;4.47;;;2.60;;
34902;SDS011;21114;44.840;0.214;2023-04-08T06:54:50;4.57;;;2.97;;
34902;SDS011;21114;44.840;0.214;2023-04-08T06:57:16;2.65;;;1.80;;
34902;SDS011;21114;44.840;0.214;2023-04-08T06:59:42;3.17;;;1.67;;
34902;SDS011;21114;44.840;0.214;2023-04-08T07:02:08;1.80;;;1.33;;
34902;SDS011;21114;44.840;0.214;2023-04-08T07:04:34;4.22;;;2.25;;
34902;SDS011;21114;44.840;0.214;2023-04-08T07:07:00;4.20;;;2.75;;
34902;SDS011;21114;44.840;0.214;2023-04-08T07:09:26;3.22;;;1.55;;
34902;SDS011;21114;44.840;0.214;2023-04-08T07:11:52;4.70;;;2.22;;
34902;SDS011;21114;44.840;0.214;2023-04-08T07:14:19;5.75;;;3.03;;
34902;SDS011;21114;44.840;0.214;2023-04-08T07:17:34;4.35;;;2.28;;
34902;SDS011;21114;44.840;0.214;2023-04-08T07:20:00;6.13;;;2.55;;
34902;SDS011;21114;44.840;0.214;2023-04-08T07:22:26;3.35;;;1.52;;
34902;SDS011;21114;44.840;0.214;2023-04-08T07:24:52;3.13;;;1.73;;
34902;SDS011;21114;44.840;0.214;2023-04-08T07:27:19;3.35;;;2.20;;
34902;SDS011;21114;44.840;0.214;2023-04-08T07:29:45;5.18;;;2.67;;
34902;SDS011;21114;44.840;0.214;2023-04-08T07:33:00;4.43;;;1.67;;
34902;SDS011;21114;44.840;0.214;2023-04-08T07:35:26;1.75;;;1.17;;
34902;SDS011;21114;44.840;0.214;2023-04-08T07:37:52;2.63;;;1.90;;
34902;SDS011;21114;44.840;0.214;2023-04-08T07:40:19;1.73;;;0.95;;
34902;SDS011;21114;44.840;0.214;2023-04-08T07:42:45;2.65;;;1.10;;
34902;SDS011;21114;44.840;0.214;2023-04-08T07:45:11;3.38;;;1.88;;
34902;SDS011;21114;44.840;0.214;2023-04-08T07:47:37;3.40;;;1.58;;
34902;SDS011;21114;44.840;0.214;2023-04-08T07:50:04;2.33;;;1.40;;
34902;SDS011;21114;44.840;0.214;2023-04-08T07:53:19;2.80;;;1.30;;
34902;SDS011;21114;44.840;0.214;2023-04-08T07:55:45;1.58;;;1.20;;
34902;SDS011;21114;44.840;0.214;2023-04-08T07:58:11;2.45;;;1.20;;
34902;SDS011;21114;44.840;0.214;2023-04-08T08:00:37;1.65;;;1.20;;
34902;SDS011;21114;44.840;0.214;2023-04-08T08:03:55;3.50;;;2.42;;
34902;SDS011;21114;44.840;0.214;2023-04-08T08:06:21;2.47;;;1.40;;
34902;SDS011;21114;44.840;0.214;2023-04-08T08:08:47;4.35;;;1.33;;
34902;SDS011;21114;44.840;0.214;2023-04-08T08:11:13;2.42;;;1.10;;
34902;SDS011;21114;44.840;0.214;2023-04-08T08:13:39;2.40;;;1.40;;
34902;SDS011;21114;44.840;0.214;2023-04-08T08:16:05;7.10;;;3.65;;
34902;SDS011;21114;44.840;0.214;2023-04-08T08:18:32;2.78;;;1.17;;
34902;SDS011;21114;44.840;0.214;2023-04-08T08:21:00;3.25;;;1.50;;
34902;SDS011;21114;44.840;0.214;2023-04-08T08:24:16;3.63;;;1.13;;
34902;SDS011;21114;44.840;0.214;2023-04-08T08:26:42;2.50;;;1.17;;
34902;SDS011;21114;44.840;0.214;2023-04-08T08:29:09;6.45;;;2.60;;
34902;SDS011;21114;44.840;0.214;2023-04-08T08:31:35;2.50;;;1.90;;
34902;SDS011;21114;44.840;0.214;2023-04-08T08:34:01;2.13;;;1.40;;
34902;SDS011;21114;44.840;0.214;2023-04-08T08:36:27;3.13;;;1.60;;
34902;SDS011;21114;44.840;0.214;2023-04-08T08:38:53;6.82;;;1.73;;
34902;SDS011;21114;44.840;0.214;2023-04-08T08:41:20;2.05;;;1.02;;
34902;SDS011;21114;44.840;0.214;2023-04-08T08:43:46;4.60;;;1.45;;
34902;SDS011;21114;44.840;0.214;2023-04-08T08:46:14;2.85;;;1.48;;
34902;SDS011;21114;44.840;0.214;2023-04-08T08:49:09;1.38;;;1.10;;
34902;SDS011;21114;44.840;0.214;2023-04-08T08:51:35;4.18;;;1.30;;
34902;SDS011;21114;44.840;0.214;2023-04-08T08:54:58;3.63;;;2.05;;
34902;SDS011;21114;44.840;0.214;2023-04-08T08:58:13;4.70;;;2.25;;
34902;SDS011;21114;44.840;0.214;2023-04-08T09:00:40;4.85;;;1.67;;
34902;SDS011;21114;44.840;0.214;2023-04-08T09:09:48;2.85;;;1.65;;
34902;SDS011;21114;44.840;0.214;2023-04-08T09:13:03;3.05;;;0.90;;
34902;SDS011;21114;44.840;0.214;2023-04-08T09:15:29;1.63;;;1.13;;
34902;SDS011;21114;44.840;0.214;2023-04-08T09:17:55;1.58;;;0.95;;
34902;SDS011;21114;44.840;0.214;2023-04-08T09:20:22;3.13;;;0.93;;
34902;SDS011;21114;44.840;0.214;2023-04-08T09:22:56;2.38;;;1.00;;
34902;SDS011;21114;44.840;0.214;2023-04-08T09:31:41;2.45;;;1.35;;
34902;SDS011;21114;44.840;0.214;2023-04-08T09:36:46;1.15;;;0.60;;
34902;SDS011;21114;44.840;0.214;2023-04-08T09:39:13;1.63;;;0.90;;
34902;SDS011;21114;44.840;0.214;2023-04-08T09:41:39;1.77;;;0.80;;
34902;SDS011;21114;44.840;0.214;2023-04-08T09:44:06;3.78;;;0.98;;
34902;SDS011;21114;44.840;0.214;2023-04-08T09:49:29;2.08;;;1.27;;
34902;SDS011;21114;44.840;0.214;2023-04-08T09:52:46;0.80;;;0.70;;
34902;SDS011;21114;44.840;0.214;2023-04-08T09:55:16;2.20;;;0.85;;
34902;SDS011;21114;44.840;0.214;2023-04-08T09:58:15;2.58;;;0.98;;
34902;SDS011;21114;44.840;0.214;2023-04-08T10:01:31;1.77;;;0.60;;
34902;SDS011;21114;44.840;0.214;2023-04-08T10:04:50;2.08;;;0.90;;
34902;SDS011;21114;44.840;0.214;2023-04-08T10:08:05;2.17;;;1.27;;
34902;SDS011;21114;44.840;0.214;2023-04-08T10:10:33;3.63;;;0.82;;
34902;SDS011;21114;44.840;0.214;2023-04-08T10:13:48;3.53;;;1.10;;
34902;SDS011;21114;44.840;0.214;2023-04-08T10:16:22;1.10;;;0.70;;
34902;SDS011;21114;44.840;0.214;2023-04-08T10:27:53;3.35;;;1.20;;
34902;SDS011;21114;44.840;0.214;2023-04-08T10:36:00;2.03;;;0.55;;
34902;SDS011;21114;44.840;0.214;2023-04-08T10:38:34;1.23;;;0.60;;
34902;SDS011;21114;44.840;0.214;2023-04-08T10:41:00;2.88;;;0.82;;
34902;SDS011;21114;44.840;0.214;2023-04-08T10:43:30;0.93;;;0.73;;
34902;SDS011;21114;44.840;0.214;2023-04-08T10:46:28;1.77;;;0.70;;
34902;SDS011;21114;44.840;0.214;2023-04-08T10:49:51;1.95;;;0.95;;
34902;SDS011;21114;44.840;0.214;2023-04-08T10:52:17;3.20;;;0.80;;
34902;SDS011;21114;44.840;0.214;2023-04-08T10:54:45;2.00;;;0.80;;
34902;SDS011;21114;44.840;0.214;2023-04-08T10:57:12;0.88;;;0.47;;
34902;SDS011;21114;44.840;0.214;2023-04-08T10:59:38;1.08;;;0.50;;
34902;SDS011;21114;44.840;0.214;2023-04-08T11:02:04;0.80;;;0.45;;
34902;SDS011;21114;44.840;0.214;2023-04-08T11:05:20;5.32;;;2.75;;
34902;SDS011;21114;44.840;0.214;2023-04-08T11:08:35;1.02;;;0.52;;
34902;SDS011;21114;44.840;0.214;2023-04-08T11:11:02;0.95;;;0.50;;
34902;SDS011;21114;44.840;0.214;2023-04-08T11:14:01;0.98;;;0.57;;
34902;SDS011;21114;44.840;0.214;2023-04-08T11:16:27;1.75;;;0.60;;
34902;SDS011;21114;44.840;0.214;2023-04-08T11:18:53;1.88;;;1.00;;
34902;SDS011;21114;44.840;0.214;2023-04-08T11:21:20;2.97;;;0.63;;
34902;SDS011;21114;44.840;0.214;2023-04-08T11:24:36;1.05;;;0.57;;
34902;SDS011;21114;44.840;0.214;2023-04-08T11:27:03;1.45;;;1.05;;
34902;SDS011;21114;44.840;0.214;2023-04-08T11:30:17;4.25;;;1.50;;
34902;SDS011;21114;44.840;0.214;2023-04-08T11:32:43;1.17;;;0.40;;
34902;SDS011;21114;44.840;0.214;2023-04-08T11:35:10;1.23;;;0.50;;
34902;SDS011;21114;44.840;0.214;2023-04-08T11:37:37;0.98;;;0.40;;
34902;SDS011;21114;44.840;0.214;2023-04-08T11:40:53;1.73;;;1.00;;
34902;SDS011;21114;44.840;0.214;2023-04-08T11:44:07;1.60;;;0.75;;
34902;SDS011;21114;44.840;0.214;2023-04-08T11:46:33;0.60;;;0.40;;
34902;SDS011;21114;44.840;0.214;2023-04-08T11:49:01;2.42;;;0.50;;
34902;SDS011;21114;44.840;0.214;2023-04-08T11:51:59;0.93;;;0.40;;
34902;SDS011;21114;44.840;0.214;2023-04-08T11:54:26;0.70;;;0.40;;
34902;SDS011;21114;44.840;0.214;2023-04-08T11:57:16;0.80;;;0.40;;
34902;SDS011;21114;44.840;0.214;2023-04-08T12:00:41;0.65;;;0.32;;
34902;SDS011;21114;44.840;0.214;2023-04-08T12:03:07;1.60;;;0.30;;
34902;SDS011;21114;44.840;0.214;2023-04-08T12:05:34;0.82;;;0.60;;
34902;SDS011;21114;44.840;0.214;2023-04-08T12:08:00;3.05;;;0.80;;
34902;SDS011;21114;44.840;0.214;2023-04-08T12:10:26;2.28;;;0.52;;
34902;SDS011;21114;44.840;0.214;2023-04-08T12:12:52;0.90;;;0.70;;
34902;SDS011;21114;44.840;0.214;2023-04-08T12:15:18;0.77;;;0.50;;
34902;SDS011;21114;44.840;0.214;2023-04-08T12:17:45;1.00;;;0.70;;
34902;SDS011;21114;44.840;0.214;2023-04-08T12:20:12;1.02;;;0.55;;
34902;SDS011;21114;44.840;0.214;2023-04-08T12:23:26;6.07;;;0.85;;
34902;SDS011;21114;44.840;0.214;2023-04-08T12:25:52;1.20;;;0.40;;
34902;SDS011;21114;44.840;0.214;2023-04-08T12:28:18;1.65;;;0.70;;
34902;SDS011;21114;44.840;0.214;2023-04-08T12:30:45;1.98;;;1.00;;
34902;SDS011;21114;44.840;0.214;2023-04-08T12:33:11;1.52;;;0.98;;
34902;SDS011;21114;44.840;0.214;2023-04-08T12:35:37;0.95;;;0.40;;
34902;SDS011;21114;44.840;0.214;2023-04-08T12:38:03;0.73;;;0.40;;
34902;SDS011;21114;44.840;0.214;2023-04-08T12:40:30;0.98;;;0.40;;
34902;SDS011;21114;44.840;0.214;2023-04-08T12:42:56;2.08;;;0.47;;
34902;SDS011;21114;44.840;0.214;2023-04-08T12:45:22;0.82;;;0.40;;
34902;SDS011;21114;44.840;0.214;2023-04-08T12:47:48;1.83;;;0.40;;
34902;SDS011;21114;44.840;0.214;2023-04-08T12:50:14;0.80;;;0.30;;
34902;SDS011;21114;44.840;0.214;2023-04-08T12:52:41;0.52;;;0.30;;
34902;SDS011;21114;44.840;0.214;2023-04-08T12:55:07;1.90;;;0.40;;
34902;SDS011;21114;44.840;0.214;2023-04-08T12:57:33;2.53;;;2.33;;
34902;SDS011;21114;44.840;0.214;2023-04-08T12:59:59;2.92;;;0.47;;
34902;SDS011;21114;44.840;0.214;2023-04-08T13:02:25;1.15;;;0.75;;
34902;SDS011;21114;44.840;0.214;2023-04-08T13:04:51;0.75;;;0.40;;
34902;SDS011;21114;44.840;0.214;2023-04-08T13:07:19;0.98;;;0.40;;
34902;SDS011;21114;44.840;0.214;2023-04-08T13:09:45;1.33;;;0.40;;
34902;SDS011;21114;44.840;0.214;2023-04-08T13:12:11;0.93;;;0.30;;
34902;SDS011;21114;44.840;0.214;2023-04-08T13:14:37;0.60;;;0.50;;
34902;SDS011;21114;44.840;0.214;2023-04-08T13:17:03;2.88;;;0.85;;
34902;SDS011;21114;44.840;0.214;2023-04-08T13:19:29;1.58;;;0.50;;
34902;SDS011;21114;44.840;0.214;2023-04-08T13:21:55;0.65;;;0.38;;
34902;SDS011;21114;44.840;0.214;2023-04-08T13:24:21;1.38;;;0.68;;
34902;SDS011;21114;44.840;0.214;2023-04-08T13:26:48;0.90;;;0.40;;
34902;SDS011;21114;44.840;0.214;2023-04-08T13:29:15;2.70;;;1.10;;
34902;SDS011;21114;44.840;0.214;2023-04-08T13:31:41;0.45;;;0.30;;
34902;SDS011;21114;44.840;0.214;2023-04-08T13:34:07;0.57;;;0.35;;
34902;SDS011;21114;44.840;0.214;2023-04-08T13:36:33;0.80;;;0.30;;
34902;SDS011;21114;44.840;0.214;2023-04-08T13:38:59;1.20;;;0.30;;
34902;SDS011;21114;44.840;0.214;2023-04-08T13:41:26;1.00;;;0.93;;
34902;SDS011;21114;44.840;0.214;2023-04-08T13:43:52;0.40;;;0.30;;
34902;SDS011;21114;44.840;0.214;2023-04-08T13:46:18;1.08;;;0.30;;
34902;SDS011;21114;44.840;0.214;2023-04-08T13:48:45;1.77;;;0.28;;
34902;SDS011;21114;44.840;0.214;2023-04-08T13:51:11;0.60;;;0.30;;
34902;SDS011;21114;44.840;0.214;2023-04-08T13:53:37;0.30;;;0.20;;
34902;SDS011;21114;44.840;0.214;2023-04-08T13:56:03;0.88;;;0.30;;
34902;SDS011;21114;44.840;0.214;2023-04-08T13:58:29;0.60;;;0.20;;
34902;SDS011;21114;44.840;0.214;2023-04-08T14:00:55;0.55;;;0.30;;
34902;SDS011;21114;44.840;0.214;2023-04-08T14:03:21;0.90;;;0.40;;
34902;SDS011;21114;44.840;0.214;2023-04-08T14:05:47;1.20;;;0.57;;
34902;SDS011;21114;44.840;0.214;2023-04-08T14:08:15;0.32;;;0.20;;
34902;SDS011;21114;44.840;0.214;2023-04-08T14:10:42;3.47;;;0.70;;
34902;SDS011;21114;44.840;0.214;2023-04-08T14:13:08;0.50;;;0.40;;
34902;SDS011;21114;44.840;0.214;2023-04-08T14:15:34;1.17;;;0.57;;
34902;SDS011;21114;44.840;0.214;2023-04-08T14:18:00;0.77;;;0.40;;
34902;SDS011;21114;44.840;0.214;2023-04-08T14:20:26;1.20;;;0.55;;
34902;SDS011;21114;44.840;0.214;2023-04-08T14:22:52;0.70;;;0.47;;
34902;SDS011;21114;44.840;0.214;2023-04-08T14:25:20;1.17;;;0.40;;
34902;SDS011;21114;44.840;0.214;2023-04-08T14:27:46;0.40;;;0.30;;
34902;SDS011;21114;44.840;0.214;2023-04-08T14:30:12;0.57;;;0.40;;
34902;SDS011;21114;44.840;0.214;2023-04-08T14:32:38;1.73;;;1.08;;
34902;SDS011;21114;44.840;0.214;2023-04-08T14:35:04;0.90;;;0.30;;
34902;SDS011;21114;44.840;0.214;2023-04-08T14:37:30;0.50;;;0.30;;
34902;SDS011;21114;44.840;0.214;2023-04-08T14:39:58;0.70;;;0.40;;
34902;SDS011;21114;44.840;0.214;2023-04-08T14:42:24;1.00;;;0.75;;
34902;SDS011;21114;44.840;0.214;2023-04-08T14:44:50;0.45;;;0.20;;
34902;SDS011;21114;44.840;0.214;2023-04-08T14:47:16;1.08;;;0.57;;
34902;SDS011;21114;44.840;0.214;2023-04-08T14:49:42;2.35;;;0.80;;
34902;SDS011;21114;44.840;0.214;2023-04-08T14:52:08;2.22;;;0.30;;
34902;SDS011;21114;44.840;0.214;2023-04-08T14:54:35;2.10;;;0.55;;
34902;SDS011;21114;44.840;0.214;2023-04-08T14:57:01;0.95;;;0.40;;
34902;SDS011;21114;44.840;0.214;2023-04-08T14:59:27;0.63;;;0.47;;
34902;SDS011;21114;44.840;0.214;2023-04-08T15:01:53;1.25;;;0.57;;
34902;SDS011;21114;44.840;0.214;2023-04-08T15:04:19;1.20;;;0.43;;
34902;SDS011;21114;44.840;0.214;2023-04-08T15:06:46;0.20;;;0.10;;
34902;SDS011;21114;44.840;0.214;2023-04-08T15:09:12;0.40;;;0.20;;
34902;SDS011;21114;44.840;0.214;2023-04-08T15:11:38;0.70;;;0.40;;
34902;SDS011;21114;44.840;0.214;2023-04-08T15:14:04;0.63;;;0.38;;
34902;SDS011;21114;44.840;0.214;2023-04-08T15:16:30;0.30;;;0.22;;
34902;SDS011;21114;44.840;0.214;2023-04-08T15:18:59;0.70;;;0.40;;
34902;SDS011;21114;44.840;0.214;2023-04-08T15:21:26;0.75;;;0.20;;
34902;SDS011;21114;44.840;0.214;2023-04-08T15:23:52;0.50;;;0.40;;
34902;SDS011;21114;44.840;0.214;2023-04-08T15:26:18;2.28;;;0.57;;
34902;SDS011;21114;44.840;0.214;2023-04-08T15:28:45;0.60;;;0.35;;
34902;SDS011;21114;44.840;0.214;2023-04-08T15:31:11;0.68;;;0.50;;
34902;SDS011;21114;44.840;0.214;2023-04-08T15:33:37;0.85;;;0.30;;
34902;SDS011;21114;44.840;0.214;2023-04-08T15:36:05;0.40;;;0.30;;
34902;SDS011;21114;44.840;0.214;2023-04-08T15:38:31;1.23;;;0.40;;
34902;SDS011;21114;44.840;0.214;2023-04-08T15:40:58;1.10;;;0.95;;
34902;SDS011;21114;44.840;0.214;2023-04-08T15:43:24;0.50;;;0.32;;
34902;SDS011;21114;44.840;0.214;2023-04-08T15:45:51;2.85;;;0.45;;
34902;SDS011;21114;44.840;0.214;2023-04-08T15:48:17;2.13;;;0.60;;
34902;SDS011;21114;44.840;0.214;2023-04-08T15:50:43;2.53;;;0.45;;
34902;SDS011;21114;44.840;0.214;2023-04-08T15:53:09;0.80;;;0.40;;
34902;SDS011;21114;44.840;0.214;2023-04-08T15:55:36;0.38;;;0.20;;
34902;SDS011;21114;44.840;0.214;2023-04-08T15:58:53;0.93;;;0.40;;
34902;SDS011;21114;44.840;0.214;2023-04-08T16:01:20;1.35;;;0.55;;
34902;SDS011;21114;44.840;0.214;2023-04-08T16:03:46;0.82;;;0.50;;
34902;SDS011;21114;44.840;0.214;2023-04-08T16:06:12;0.85;;;0.52;;
34902;SDS011;21114;44.840;0.214;2023-04-08T16:08:39;0.77;;;0.35;;